Time;durP1;ratioP1;P1;durP2;ratioP2;P2;SDS_P1;SDS_P2;PMS_P1;PMS_P2;Temp;Humidity;BMP_temperature;BMP_pressure;BME280_temperature;BME280_humidity;BME280_pressure;Samples;Min_cycle;Max_cycle;Signal;HPM_P1;HPM_P2
2020/12/16 00:01:20;;;;;;;17.17;11.80;;;3.70;99.90;;;;;;4721805;30;20476;-80
2020/12/16 00:03:46;;;;;;;16.95;11.32;;;3.70;99.90;;;;;;4759067;30;20048;-80
2020/12/16 00:06:17;;;;;;;17.90;11.90;;;3.70;99.90;;;;;;4757109;30;20405;-80
2020/12/16 00:08:49;;;;;;;15.05;11.38;;;3.60;99.90;;;;;;4755807;30;20074;-80
2020/12/16 00:11:15;;;;;;;16.05;12.10;;;3.60;99.90;;;;;;4756549;30;20091;-79
2020/12/16 00:13:47;;;;;;;22.05;13.23;;;3.60;99.90;;;;;;4742662;30;20083;-80
2020/12/16 00:16:18;;;;;;;17.80;12.32;;;3.50;99.90;;;;;;4740260;30;20059;-80
2020/12/16 00:18:44;;;;;;;16.95;12.27;;;3.50;99.90;;;;;;4739863;30;20142;-80
2020/12/16 00:21:11;;;;;;;16.70;12.55;;;3.40;99.90;;;;;;4741331;30;20074;-80
2020/12/16 00:23:42;;;;;;;19.58;14.10;;;3.40;99.90;;;;;;4741229;30;20054;-80
2020/12/16 00:26:13;;;;;;;20.08;14.02;;;3.40;99.90;;;;;;4755127;30;20138;-80
2020/12/16 00:28:41;;;;;;;15.18;12.82;;;3.50;99.90;;;;;;4734677;30;20148;-80
2020/12/16 00:31:14;;;;;;;21.55;14.68;;;3.50;99.90;;;;;;4736751;30;20056;-80
2020/12/16 00:33:45;;;;;;;19.42;15.18;;;3.50;99.90;;;;;;4736440;30;20123;-80
2020/12/16 00:36:12;;;;;;;17.35;13.25;;;3.50;99.90;;;;;;4736673;30;20056;-80
2020/12/16 00:38:38;;;;;;;17.48;13.75;;;3.50;99.90;;;;;;4735189;30;20103;-80
2020/12/16 00:41:05;;;;;;;21.23;15.25;;;3.50;99.90;;;;;;4735489;30;20501;-80
2020/12/16 00:43:36;;;;;;;18.60;13.35;;;3.50;99.90;;;;;;4722620;30;20106;-80
2020/12/16 00:46:03;;;;;;;22.70;15.15;;;3.50;99.90;;;;;;4722015;30;20048;-80
2020/12/16 00:48:29;;;;;;;19.95;13.77;;;3.50;99.90;;;;;;4720818;30;20507;-80
2020/12/16 00:50:56;;;;;;;17.75;14.02;;;3.50;99.90;;;;;;4736387;30;20143;-80
2020/12/16 00:53:22;;;;;;;20.13;14.65;;;3.50;99.90;;;;;;4736739;30;20045;-80
2020/12/16 00:55:52;;;;;;;17.27;13.18;;;3.50;99.90;;;;;;4722068;30;20078;-79
2020/12/16 00:58:20;;;;;;;17.70;12.75;;;3.50;99.90;;;;;;4738906;30;20069;-80
2020/12/16 01:00:51;;;;;;;17.48;12.63;;;3.50;99.90;;;;;;4726061;30;20513;-80
2020/12/16 01:03:22;;;;;;;18.17;13.27;;;3.50;99.90;;;;;;4725601;30;20109;-80
2020/12/16 01:05:49;;;;;;;15.93;12.88;;;3.50;99.90;;;;;;4740430;30;20056;-80
2020/12/16 01:08:15;;;;;;;16.42;12.98;;;3.50;99.90;;;;;;4738951;30;20056;-80
2020/12/16 01:10:45;;;;;;;16.20;12.77;;;3.50;99.90;;;;;;4725402;30;20083;-80
2020/12/16 01:13:17;;;;;;;16.30;12.40;;;3.50;99.90;;;;;;4725216;30;20142;-80
2020/12/16 01:15:45;;;;;;;17.67;13.50;;;3.50;99.90;;;;;;4738500;30;20309;-80
2020/12/16 01:18:12;;;;;;;18.70;13.55;;;3.50;99.90;;;;;;4723547;30;20055;-80
2020/12/16 01:20:42;;;;;;;19.20;12.75;;;3.50;99.90;;;;;;4720397;30;20139;-80
2020/12/16 01:23:21;;;;;;;16.48;12.60;;;3.50;99.90;;;;;;4726005;30;20052;-80
2020/12/16 01:25:49;;;;;;;19.15;13.07;;;3.40;99.90;;;;;;4739413;30;20147;-80
2020/12/16 01:28:16;;;;;;;17.08;12.15;;;3.40;99.90;;;;;;4723652;30;20529;-80
2020/12/16 01:30:49;;;;;;;17.27;12.35;;;3.40;99.90;;;;;;4738357;30;20147;-80
2020/12/16 01:33:16;;;;;;;16.20;11.93;;;3.40;99.90;;;;;;4724140;30;20083;-80
2020/12/16 01:35:47;;;;;;;19.60;12.60;;;3.40;99.90;;;;;;4724543;30;20058;-80
2020/12/16 01:38:14;;;;;;;17.30;12.40;;;3.40;99.90;;;;;;4723354;30;20058;-80
2020/12/16 01:40:44;;;;;;;16.40;11.70;;;3.40;99.90;;;;;;4724591;30;20125;-80
2020/12/16 01:43:12;;;;;;;16.63;11.20;;;3.40;99.90;;;;;;4737925;30;20161;-80
2020/12/16 01:45:39;;;;;;;16.55;11.77;;;3.40;99.90;;;;;;4723971;30;20480;-80
2020/12/16 01:48:07;;;;;;;14.25;11.50;;;3.40;99.90;;;;;;4736481;30;20151;-80
2020/12/16 01:50:34;;;;;;;14.50;10.65;;;3.40;99.90;;;;;;4723023;30;20078;-80
2020/12/16 01:53:06;;;;;;;14.85;11.13;;;3.40;99.90;;;;;;4737636;30;20056;-79
2020/12/16 01:55:40;;;;;;;14.48;11.43;;;3.50;99.90;;;;;;4737357;30;20048;-80
2020/12/16 01:58:21;;;;;;;14.32;10.57;;;3.40;99.90;;;;;;4722893;30;20048;-80
2020/12/16 02:00:52;;;;;;;16.13;11.77;;;3.40;99.90;;;;;;4735946;30;20055;-80
2020/12/16 02:03:21;;;;;;;16.23;12.18;;;3.50;99.90;;;;;;4735304;30;20102;-80
2020/12/16 02:06:10;;;;;;;15.18;10.95;;;3.50;99.90;;;;;;4736517;30;20060;-80
2020/12/16 02:08:50;;;;;;;14.77;10.52;;;3.50;99.90;;;;;;4722111;30;20056;-79
2020/12/16 02:11:18;;;;;;;16.23;12.02;;;3.50;99.90;;;;;;4736769;30;20064;-80
2020/12/16 02:13:53;;;;;;;16.25;12.35;;;3.50;99.90;;;;;;4722545;30;20058;-80
2020/12/16 02:16:19;;;;;;;18.42;12.43;;;3.50;99.90;;;;;;4735741;30;20056;-79
2020/12/16 02:18:47;;;;;;;15.80;12.38;;;3.50;99.90;;;;;;4734421;30;20456;-80
2020/12/16 02:21:28;;;;;;;18.17;13.13;;;3.50;99.90;;;;;;4723457;30;20052;-79
2020/12/16 02:24:06;;;;;;;18.73;14.65;;;3.50;99.90;;;;;;4728431;30;20060;-80
2020/12/16 02:26:40;;;;;;;16.15;11.65;;;3.40;99.90;;;;;;4736042;30;20520;-79
2020/12/16 02:29:09;;;;;;;22.52;14.88;;;3.50;99.90;;;;;;4735230;30;20135;-80
2020/12/16 02:31:40;;;;;;;24.55;16.85;;;3.50;99.90;;;;;;4736011;30;20513;-80
2020/12/16 02:34:10;;;;;;;24.07;14.97;;;3.40;99.90;;;;;;4735519;30;20052;-80
2020/12/16 02:36:40;;;;;;;21.10;14.90;;;3.30;99.90;;;;;;4722257;30;20052;-80
2020/12/16 02:39:13;;;;;;;23.65;15.75;;;3.30;99.90;;;;;;4721613;30;20048;-80
2020/12/16 02:42:08;;;;;;;21.15;15.63;;;3.20;99.90;;;;;;4724903;30;20202;-80
2020/12/16 02:44:40;;;;;;;21.83;14.35;;;3.20;99.90;;;;;;4722370;30;20044;-80
2020/12/16 02:47:45;;;;;;;20.25;14.43;;;3.20;99.90;;;;;;4735449;30;20528;-80
2020/12/16 02:50:19;;;;;;;21.63;13.90;;;3.20;99.90;;;;;;4736366;30;20513;-80
2020/12/16 02:52:47;;;;;;;20.90;13.68;;;3.20;99.90;;;;;;4735855;30;20590;-80
2020/12/16 02:55:18;;;;;;;19.27;13.85;;;3.20;99.90;;;;;;4722200;30;20460;-80
2020/12/16 02:58:05;;;;;;;24.38;15.98;;;3.20;99.90;;;;;;4737282;30;20398;-80
2020/12/16 03:00:32;;;;;;;18.98;13.95;;;3.20;99.90;;;;;;4735769;30;20095;-80
2020/12/16 03:03:29;;;;;;;21.50;14.30;;;3.20;99.90;;;;;;4724630;30;20056;-80
2020/12/16 03:06:34;;;;;;;21.42;14.43;;;3.20;99.90;;;;;;4735967;30;20071;-80
2020/12/16 03:09:07;;;;;;;17.25;13.55;;;3.20;99.90;;;;;;4721285;30;20076;-79
2020/12/16 03:11:35;;;;;;;19.35;13.30;;;3.20;99.90;;;;;;4720475;30;20083;-80
2020/12/16 03:14:04;;;;;;;19.17;14.43;;;3.20;99.90;;;;;;4721078;30;20492;-80
2020/12/16 03:16:30;;;;;;;21.20;14.43;;;3.20;99.90;;;;;;4720970;30;20059;-80
2020/12/16 03:19:21;;;;;;;23.52;16.17;;;3.20;99.90;;;;;;4732468;30;20501;-80
2020/12/16 03:21:48;;;;;;;21.33;14.18;;;3.20;99.90;;;;;;4735471;30;20081;-80
2020/12/16 03:24:21;;;;;;;;;;;3.20;99.90;;;;;;4721849;30;20056;-80
2020/12/16 03:27:09;;;;;;;24.00;14.38;;;3.10;99.90;;;;;;4735254;30;19926;-80
2020/12/16 03:29:45;;;;;;;22.60;14.95;;;3.20;99.90;;;;;;4734241;30;20142;-80
2020/12/16 03:32:44;;;;;;;21.15;14.80;;;3.20;99.90;;;;;;4727947;30;20060;-80
2020/12/16 03:35:31;;;;;;;27.50;16.55;;;3.20;99.90;;;;;;4728102;30;20597;-79
2020/12/16 03:38:07;;;;;;;27.90;16.30;;;3.20;99.90;;;;;;4733768;30;20118;-80
2020/12/16 03:40:35;;;;;;;21.52;15.00;;;3.20;99.90;;;;;;4735129;30;20056;-80
2020/12/16 03:43:03;;;;;;;22.50;15.68;;;3.20;99.90;;;;;;4735493;30;20094;-80
2020/12/16 03:45:30;;;;;;;25.48;16.15;;;3.20;99.90;;;;;;4735050;30;20107;-80
2020/12/16 03:47:59;;;;;;;22.52;15.63;;;3.30;99.90;;;;;;4734106;30;20052;-80
2020/12/16 03:50:34;;;;;;;24.83;15.63;;;3.30;99.90;;;;;;4720958;30;20133;-80
2020/12/16 03:53:02;;;;;;;24.92;15.70;;;3.30;99.90;;;;;;4720577;30;20052;-80
2020/12/16 03:55:47;;;;;;;24.30;15.65;;;3.30;99.90;;;;;;4737279;30;20107;-80
2020/12/16 03:58:29;;;;;;;27.73;17.98;;;3.30;99.90;;;;;;4739245;30;20056;-80
2020/12/16 04:01:10;;;;;;;31.52;18.63;;;3.30;99.90;;;;;;4731949;30;20063;-80
2020/12/16 04:03:37;;;;;;;30.83;17.95;;;3.30;99.90;;;;;;4726519;30;20537;-81
2020/12/16 04:06:19;;;;;;;27.23;17.70;;;3.30;99.90;;;;;;4729299;30;20088;-81
2020/12/16 04:08:46;;;;;;;23.42;16.20;;;3.30;99.90;;;;;;4742731;30;20517;-80
2020/12/16 04:11:34;;;;;;;24.30;15.85;;;3.20;99.90;;;;;;4729464;30;20076;-80
2020/12/16 04:14:12;;;;;;;27.73;18.08;;;3.30;99.90;;;;;;4741078;30;20063;-81
2020/12/16 04:16:40;;;;;;;21.80;16.42;;;3.30;99.90;;;;;;4741484;30;20052;-80
2020/12/16 04:19:11;;;;;;;35.20;21.75;;;3.30;99.90;;;;;;4726262;30;20056;-80
2020/12/16 04:21:37;;;;;;;36.08;22.08;;;3.30;99.90;;;;;;4725771;30;20060;-80
2020/12/16 04:24:05;;;;;;;38.53;18.10;;;3.30;99.90;;;;;;4740704;30;20110;-81
2020/12/16 04:26:52;;;;;;;26.40;17.15;;;3.20;99.90;;;;;;4743997;30;20140;-80
2020/12/16 04:29:19;;;;;;;24.88;16.25;;;3.20;99.90;;;;;;4743115;30;20059;-80
2020/12/16 04:31:50;;;;;;;28.20;17.15;;;3.20;99.90;;;;;;4743635;30;20060;-81
2020/12/16 04:34:20;;;;;;;24.95;16.20;;;3.20;99.90;;;;;;4743814;30;20048;-81
2020/12/16 04:36:51;;;;;;;26.23;16.50;;;3.20;99.90;;;;;;4742756;30;20048;-80
2020/12/16 04:39:19;;;;;;;22.73;16.33;;;3.20;99.90;;;;;;4741976;30;20048;-80
2020/12/16 04:41:52;;;;;;;43.10;22.80;;;3.20;99.90;;;;;;4729425;30;20063;-79
2020/12/16 04:44:19;;;;;;;66.28;32.70;;;3.10;99.90;;;;;;4742603;30;20052;-80
2020/12/16 04:46:54;;;;;;;57.97;29.48;;;3.10;99.90;;;;;;4742923;30;20402;-81
2020/12/16 04:49:29;;;;;;;46.58;25.58;;;3.10;99.90;;;;;;4729133;30;20091;-81
2020/12/16 04:51:57;;;;;;;38.20;22.42;;;3.10;99.90;;;;;;4742637;30;20079;-80
2020/12/16 04:54:45;;;;;;;34.40;19.75;;;3.20;99.90;;;;;;4742987;30;20056;-80
2020/12/16 04:57:16;;;;;;;36.67;21.08;;;3.10;99.90;;;;;;4729837;30;20048;-80
2020/12/16 04:59:43;;;;;;;29.23;17.60;;;3.10;99.90;;;;;;4741965;30;20071;-80
2020/12/16 05:02:21;;;;;;;29.40;18.23;;;3.10;99.90;;;;;;4742736;30;20063;-80
2020/12/16 05:05:04;;;;;;;29.67;16.60;;;3.10;99.90;;;;;;4742312;30;20080;-80
2020/12/16 05:07:31;;;;;;;27.08;17.10;;;3.00;99.90;;;;;;4727135;30;20291;-80
2020/12/16 05:09:58;;;;;;;22.48;14.95;;;3.00;99.90;;;;;;4740255;30;20056;-80
2020/12/16 05:12:24;;;;;;;21.33;13.98;;;3.00;99.90;;;;;;4725573;30;20113;-80
2020/12/16 05:14:50;;;;;;;19.65;12.75;;;3.00;99.90;;;;;;4739424;30;20079;-80
2020/12/16 05:17:17;;;;;;;20.00;13.10;;;2.90;99.90;;;;;;4740120;30;20055;-80
2020/12/16 05:20:08;;;;;;;17.52;11.82;;;2.90;99.90;;;;;;4746454;30;20090;-80
2020/12/16 05:22:34;;;;;;;15.80;10.43;;;2.90;99.90;;;;;;4744992;30;20056;-80
2020/12/16 05:25:00;;;;;;;18.48;12.48;;;2.80;99.90;;;;;;4741950;30;20056;-80
2020/12/16 05:27:31;;;;;;;16.98;12.30;;;2.90;99.90;;;;;;4727670;30;20090;-81
2020/12/16 05:30:55;;;;;;;15.52;10.82;;;2.80;99.90;;;;;;4740178;30;20063;-82
2020/12/16 05:33:26;;;;;;;16.95;11.20;;;2.80;99.90;;;;;;4757075;30;20062;-80
2020/12/16 05:35:54;;;;;;;15.48;10.85;;;2.70;99.90;;;;;;4750814;30;20155;-80
2020/12/16 05:38:22;;;;;;;17.30;11.57;;;2.70;99.90;;;;;;4760716;30;20047;-81
2020/12/16 05:40:49;;;;;;;14.73;11.25;;;2.60;99.90;;;;;;4748700;30;20063;-80
2020/12/16 05:43:27;;;;;;;18.15;10.73;;;2.60;99.90;;;;;;4749668;30;20063;-80
2020/12/16 05:45:53;;;;;;;16.05;11.20;;;2.60;99.90;;;;;;4762750;30;20047;-80
2020/12/16 05:48:20;;;;;;;16.50;10.20;;;2.60;99.90;;;;;;4760774;30;20059;-80
2020/12/16 05:50:57;;;;;;;13.57;10.13;;;2.50;99.90;;;;;;4731438;30;20068;-81
2020/12/16 05:53:26;;;;;;;15.77;10.48;;;2.50;99.90;;;;;;4731161;30;20064;-80
2020/12/16 05:56:00;;;;;;;15.95;10.75;;;2.50;99.90;;;;;;4751191;30;20055;-80
2020/12/16 05:58:31;;;;;;;12.90;9.40;;;2.40;99.90;;;;;;4755062;30;20059;-80
2020/12/16 06:01:04;;;;;;;14.43;9.85;;;2.40;99.90;;;;;;4763344;30;20062;-80
2020/12/16 06:03:34;;;;;;;12.75;9.52;;;2.40;99.90;;;;;;4761323;30;20102;-81
2020/12/16 06:06:46;;;;;;;13.23;10.23;;;2.40;99.90;;;;;;4771644;30;20062;-80
2020/12/16 06:09:18;;;;;;;14.05;8.82;;;2.40;99.90;;;;;;4755730;30;20512;-80
2020/12/16 06:12:42;;;;;;;13.90;9.77;;;2.30;99.90;;;;;;4754525;30;20056;-80
2020/12/16 06:15:48;;;;;;;14.23;9.63;;;2.30;99.90;;;;;;4763173;30;20087;-80
2020/12/16 06:18:15;;;;;;;11.02;8.60;;;2.30;99.90;;;;;;4729556;30;20075;-80
2020/12/16 06:20:42;;;;;;;11.88;8.45;;;2.30;99.90;;;;;;4722440;30;20555;-80
2020/12/16 06:23:32;;;;;;;10.75;8.27;;;2.30;99.90;;;;;;4743165;30;20052;-80
2020/12/16 06:26:01;;;;;;;14.07;9.43;;;2.30;99.90;;;;;;4759601;30;20032;-80
2020/12/16 06:28:28;;;;;;;11.52;8.13;;;2.20;99.90;;;;;;4746618;30;20523;-80
2020/12/16 06:31:05;;;;;;;13.52;9.00;;;2.20;99.90;;;;;;4746134;30;20067;-80
2020/12/16 06:33:44;;;;;;;10.65;8.48;;;2.20;99.90;;;;;;4720376;30;20543;-80
2020/12/16 06:36:11;;;;;;;13.50;9.10;;;2.10;99.90;;;;;;4717232;30;20052;-79
2020/12/16 06:38:47;;;;;;;15.95;9.88;;;2.10;99.90;;;;;;4731479;30;20048;-80
2020/12/16 06:41:23;;;;;;;21.63;11.95;;;2.10;99.90;;;;;;4719306;30;20060;-80
2020/12/16 06:43:52;;;;;;;22.10;12.43;;;2.10;99.90;;;;;;4719565;30;20052;-80
2020/12/16 06:46:32;;;;;;;18.52;10.95;;;2.10;99.90;;;;;;4734120;30;20080;-80
2020/12/16 06:49:08;;;;;;;35.83;14.77;;;2.10;99.90;;;;;;4718328;30;20425;-80
2020/12/16 06:51:46;;;;;;;22.95;14.02;;;2.10;99.90;;;;;;4747706;30;20066;-80
2020/12/16 06:54:15;;;;;;;32.45;16.92;;;2.10;99.90;;;;;;4751755;30;20055;-80
2020/12/16 06:56:47;;;;;;;23.55;13.73;;;2.10;99.90;;;;;;4733995;30;20207;-80
2020/12/16 06:59:43;;;;;;;25.23;13.95;;;2.10;99.90;;;;;;4718659;30;20048;-80
2020/12/16 07:02:15;;;;;;;29.52;17.35;;;2.10;99.90;;;;;;4733756;30;20070;-80
2020/12/16 07:04:42;;;;;;;42.40;20.13;;;2.10;99.90;;;;;;4735132;30;20052;-80
2020/12/16 07:07:38;;;;;;;39.38;21.23;;;2.20;99.90;;;;;;4719292;30;20142;-80
2020/12/16 07:10:36;;;;;;;50.58;18.33;;;2.20;99.90;;;;;;4717881;30;20529;-80
2020/12/16 07:13:14;;;;;;;32.00;16.85;;;2.20;99.90;;;;;;4735867;30;20471;-80
2020/12/16 07:15:56;;;;;;;34.78;15.80;;;2.20;99.90;;;;;;4732163;30;20060;-80
2020/12/16 07:18:42;;;;;;;89.50;20.98;;;2.20;99.90;;;;;;4731894;30;20052;-80
2020/12/16 07:21:16;;;;;;;75.50;22.38;;;2.20;99.90;;;;;;4734323;30;20099;-79
2020/12/16 07:23:57;;;;;;;68.30;22.30;;;2.10;99.90;;;;;;4733109;30;20071;-80
2020/12/16 07:26:36;;;;;;;53.95;19.77;;;2.10;99.90;;;;;;4733237;30;20131;-80
2020/12/16 07:29:31;;;;;;;32.42;17.33;;;2.00;99.90;;;;;;4733582;30;20539;-80
2020/12/16 07:32:01;;;;;;;26.85;15.70;;;2.00;99.90;;;;;;4712533;30;20064;-80
2020/12/16 07:34:30;;;;;;;33.15;15.82;;;2.10;99.90;;;;;;4733235;30;20083;-80
2020/12/16 07:37:04;;;;;;;31.10;15.48;;;2.10;99.90;;;;;;4733899;30;20478;-80
2020/12/16 07:39:32;;;;;;;;;;;2.10;99.90;;;;;;4733191;30;20048;-80
2020/12/16 07:42:01;;;;;;;24.52;14.68;;;2.10;99.90;;;;;;4733480;30;19926;-79
2020/12/16 07:44:28;;;;;;;23.83;15.85;;;2.20;99.90;;;;;;4720619;30;20052;-81
2020/12/16 07:47:04;;;;;;;25.30;16.52;;;2.20;99.90;;;;;;4734840;30;20102;-80
2020/12/16 07:49:32;;;;;;;43.60;23.85;;;2.20;99.90;;;;;;4719128;30;20055;-80
2020/12/16 07:52:01;;;;;;;37.28;22.70;;;2.30;99.90;;;;;;4734160;30;20144;-80
2020/12/16 07:54:29;;;;;;;28.85;17.95;;;2.40;99.90;;;;;;4718178;30;20099;-80
2020/12/16 07:56:56;;;;;;;31.25;18.60;;;2.40;99.90;;;;;;4732543;30;20052;-80
2020/12/16 07:59:31;;;;;;;34.15;18.10;;;2.40;99.90;;;;;;4733176;30;20055;-80
2020/12/16 08:02:09;;;;;;;53.47;22.65;;;2.50;99.90;;;;;;4736577;30;20059;-80
2020/12/16 08:04:36;;;;;;;;;;;2.50;99.90;;;;;;4737212;30;20067;-80
2020/12/16 08:07:15;;;;;;;33.05;15.68;;;2.50;99.90;;;;;;4737232;30;19962;-80
2020/12/16 08:09:53;;;;;;;22.85;15.10;;;2.50;99.90;;;;;;4735631;30;20044;-80
2020/12/16 08:12:22;;;;;;;24.67;14.93;;;2.60;99.90;;;;;;4738880;30;20155;-80
2020/12/16 08:14:50;;;;;;;24.27;14.73;;;2.60;99.90;;;;;;4730777;30;20055;-80
2020/12/16 08:17:22;;;;;;;22.17;13.90;;;2.60;99.90;;;;;;4735972;30;20060;-80
2020/12/16 08:20:07;;;;;;;22.48;15.32;;;2.70;99.90;;;;;;4735667;30;20056;-80
2020/12/16 08:22:37;;;;;;;21.83;15.05;;;2.80;99.90;;;;;;4737050;30;20060;-80
2020/12/16 08:25:11;;;;;;;21.80;16.33;;;2.80;99.90;;;;;;4735701;30;20256;-79
2020/12/16 08:27:50;;;;;;;24.92;15.98;;;2.90;99.90;;;;;;4736945;30;20138;-80
2020/12/16 08:46:11;;;;;;;23.48;16.00;;;3.00;99.90;;;;;;5361489;24;20056;-81
2020/12/16 08:49:01;;;;;;;23.17;14.57;;;2.90;99.90;;;;;;4770174;30;20051;-83
2020/12/16 09:16:51;;;;;;;31.52;18.95;;;3.10;99.90;;;;;;4894348;24;19952;-81
2020/12/16 09:20:14;;;;;;;33.38;20.15;;;3.10;99.90;;;;;;4769028;30;20618;-82
2020/12/16 09:47:29;;;;;;;57.33;16.60;;;3.10;99.90;;;;;;5582114;24;20583;-81
2020/12/16 11:46:31;;;;;;;46.65;24.38;;;5.00;99.90;;;;;;4896198;24;20064;-78
2020/12/16 11:49:03;;;;;;;51.33;24.23;;;5.10;99.90;;;;;;4744746;30;20547;-78
2020/12/16 11:51:36;;;;;;;45.50;22.20;;;5.20;99.90;;;;;;4736124;30;20062;-78
2020/12/16 11:54:03;;;;;;;39.83;22.58;;;5.30;99.90;;;;;;4729385;30;20425;-78
2020/12/16 11:56:36;;;;;;;44.05;22.35;;;5.40;99.90;;;;;;4718933;30;20126;-78
2020/12/16 11:59:07;;;;;;;43.08;24.50;;;5.40;99.90;;;;;;4730487;30;20467;-78
2020/12/16 12:01:35;;;;;;;38.15;24.80;;;5.50;99.90;;;;;;4717765;30;20094;-78
2020/12/16 12:04:01;;;;;;;34.00;21.60;;;5.60;99.90;;;;;;4732436;30;20048;-78
2020/12/16 12:06:32;;;;;;;39.28;20.65;;;5.60;99.90;;;;;;4745447;30;20131;-78
2020/12/16 12:09:04;;;;;;;38.92;21.73;;;5.70;99.90;;;;;;4730947;30;20052;-79
2020/12/16 12:11:36;;;;;;;32.10;20.02;;;5.80;99.90;;;;;;4718478;30;20052;-78
2020/12/16 12:14:09;;;;;;;31.77;19.77;;;5.90;99.90;;;;;;4731762;30;20102;-78
2020/12/16 12:16:36;;;;;;;31.67;18.35;;;5.90;99.90;;;;;;4732173;30;20143;-78
2020/12/16 12:19:02;;;;;;;32.67;19.83;;;6.00;99.90;;;;;;4716444;30;20045;-78
2020/12/16 12:21:34;;;;;;;30.45;18.42;;;6.10;99.90;;;;;;4717950;30;20152;-78
2020/12/16 13:40:52;;;;;;;25.58;16.60;;;7.80;99.90;;;;;;4774734;30;20051;-80
2020/12/16 13:45:26;;;;;;;24.88;16.50;;;7.80;99.90;;;;;;4761353;30;20144;-79
2020/12/16 13:56:27;;;;;;;22.13;15.70;;;7.60;99.90;;;;;;4759633;30;20163;-84
2020/12/16 15:18:30;;;;;;;17.90;11.45;;;5.60;99.90;;;;;;5258310;24;20051;-81
2020/12/16 15:25:35;;;;;;;18.63;13.32;;;5.60;99.90;;;;;;4997827;24;20062;-80
2020/12/16 17:07:47;;;;;;;13.85;10.48;;;3.50;99.90;;;;;;5620377;24;20038;-82
2020/12/16 17:10:15;;;;;;;16.15;11.35;;;3.40;99.90;;;;;;4754415;30;20138;-80
2020/12/16 17:12:47;;;;;;;14.90;10.50;;;3.60;99.90;;;;;;4775285;30;20142;-82
2020/12/16 17:41:55;;;;;;;23.77;13.82;;;3.60;99.90;;;;;;5519576;24;20048;-79
2020/12/16 17:44:23;;;;;;;26.63;16.48;;;3.60;99.90;;;;;;4747915;30;20083;-80
2020/12/16 18:43:02;;;;;;;26.60;13.90;;;3.40;99.90;;;;;;4889295;24;20095;-80
2020/12/16 18:45:40;;;;;;;22.65;13.90;;;3.40;99.90;;;;;;4740107;30;20052;-80
2020/12/16 18:48:35;;;;;;;21.88;13.90;;;3.40;99.90;;;;;;4755812;30;20133;-80
2020/12/16 18:51:03;;;;;;;26.98;16.67;;;3.40;99.90;;;;;;4724390;30;20067;-80
2020/12/16 18:53:30;;;;;;;24.38;16.67;;;3.40;99.90;;;;;;4736903;30;20052;-80
2020/12/16 18:56:03;;;;;;;21.77;15.77;;;3.40;99.90;;;;;;4723400;30;20067;-80
2020/12/16 18:58:33;;;;;;;20.67;14.65;;;3.40;99.90;;;;;;4737521;30;20517;-80
2020/12/16 19:01:03;;;;;;;25.52;14.25;;;3.40;99.90;;;;;;4722383;30;20445;-80
2020/12/16 19:03:30;;;;;;;20.75;14.27;;;3.30;99.90;;;;;;4736497;30;20055;-79
2020/12/16 19:05:58;;;;;;;25.60;15.00;;;3.30;99.90;;;;;;4737608;30;20409;-81
2020/12/16 19:08:25;;;;;;;23.63;16.48;;;3.30;99.90;;;;;;4754294;30;20052;-81
2020/12/16 19:10:52;;;;;;;26.23;19.77;;;3.30;99.90;;;;;;4724647;30;20052;-81
2020/12/16 19:13:20;;;;;;;30.27;19.25;;;3.30;99.90;;;;;;4739804;30;20531;-80
2020/12/16 19:15:48;;;;;;;26.15;14.32;;;3.20;99.90;;;;;;4724139;30;20398;-80
2020/12/16 19:18:15;;;;;;;24.40;15.20;;;3.20;99.90;;;;;;4739303;30;20052;-81
2020/12/16 19:20:46;;;;;;;19.77;12.77;;;3.20;99.90;;;;;;4724285;30;20056;-81
2020/12/16 19:23:17;;;;;;;27.05;14.38;;;3.20;99.90;;;;;;4736897;30;20052;-80
2020/12/16 19:25:47;;;;;;;24.52;13.77;;;3.20;99.90;;;;;;4738125;30;20051;-80
2020/12/16 19:28:13;;;;;;;19.67;13.63;;;3.20;99.90;;;;;;4738979;30;20056;-81
2020/12/16 19:30:40;;;;;;;23.38;14.40;;;3.10;99.90;;;;;;4725604;30;20090;-81
2020/12/16 19:33:12;;;;;;;28.92;14.23;;;3.20;99.90;;;;;;4738443;30;20083;-80
2020/12/16 19:35:39;;;;;;;20.42;12.68;;;3.20;99.90;;;;;;4738757;30;20122;-81
2020/12/16 19:38:07;;;;;;;22.58;12.95;;;3.10;99.90;;;;;;4741582;30;20122;-80
2020/12/16 19:40:35;;;;;;;18.70;12.88;;;3.10;99.90;;;;;;4738766;30;20056;-80
2020/12/16 19:43:04;;;;;;;20.83;12.52;;;3.10;99.90;;;;;;4737422;30;20080;-80
2020/12/16 19:45:31;;;;;;;18.83;12.73;;;3.10;99.90;;;;;;4722938;30;20056;-81
2020/12/16 19:47:59;;;;;;;18.92;12.43;;;3.10;99.90;;;;;;4723661;30;20062;-80
2020/12/16 19:50:31;;;;;;;17.27;11.73;;;3.10;99.90;;;;;;4737314;30;20507;-80
2020/12/16 19:52:59;;;;;;;18.42;12.05;;;3.10;99.90;;;;;;4738999;30;20052;-79
2020/12/16 19:55:26;;;;;;;22.25;13.55;;;3.10;99.90;;;;;;4728113;30;20056;-79
2020/12/16 19:57:53;;;;;;;20.52;13.23;;;3.20;99.90;;;;;;4738499;30;20147;-80
2020/12/16 20:00:21;;;;;;;23.45;12.93;;;3.10;99.90;;;;;;4735408;30;20063;-80
2020/12/16 20:02:49;;;;;;;22.38;13.63;;;3.10;99.90;;;;;;4720667;30;20052;-79
2020/12/16 20:05:16;;;;;;;22.48;12.80;;;3.10;99.90;;;;;;4735523;30;20075;-81
2020/12/16 20:07:48;;;;;;;19.85;12.70;;;3.10;99.90;;;;;;4736668;30;20052;-80
2020/12/16 20:10:21;;;;;;;19.30;13.30;;;3.10;99.90;;;;;;4722461;30;20053;-80
2020/12/16 20:12:51;;;;;;;16.63;11.80;;;3.10;99.90;;;;;;4737018;30;20056;-81
2020/12/16 20:15:23;;;;;;;18.58;13.20;;;3.10;99.90;;;;;;4736803;30;20060;-81
2020/12/16 20:17:50;;;;;;;18.67;12.93;;;3.00;99.90;;;;;;4721436;30;20056;-81
2020/12/16 20:20:17;;;;;;;26.33;13.18;;;3.00;99.90;;;;;;4735803;30;20055;-80
2020/12/16 20:22:49;;;;;;;19.55;12.43;;;3.00;99.90;;;;;;4722533;30;20051;-80
2020/12/16 20:25:25;;;;;;;19.08;13.60;;;3.00;99.90;;;;;;4736885;30;20099;-80
2020/12/16 20:27:53;;;;;;;19.80;13.88;;;3.00;99.90;;;;;;4736346;30;20448;-80
2020/12/16 20:30:21;;;;;;;18.60;13.20;;;3.00;99.90;;;;;;4722247;30;20086;-81
2020/12/16 20:32:48;;;;;;;23.13;14.90;;;3.00;99.90;;;;;;4737120;30;20055;-81
2020/12/16 20:35:15;;;;;;;18.88;12.18;;;3.00;99.90;;;;;;4736172;30;20056;-80
2020/12/16 20:37:44;;;;;;;22.63;12.43;;;3.00;99.90;;;;;;4722206;30;20492;-81
2020/12/16 20:40:15;;;;;;;23.70;12.73;;;3.10;99.90;;;;;;4736827;30;20107;-80
2020/12/16 20:42:43;;;;;;;21.33;14.00;;;3.10;99.90;;;;;;4736634;30;20052;-80
2020/12/16 20:45:11;;;;;;;17.67;12.63;;;3.10;99.90;;;;;;4735918;30;20083;-81
2020/12/16 20:47:39;;;;;;;20.75;13.00;;;3.10;99.90;;;;;;4736510;30;20056;-81
2020/12/16 20:50:08;;;;;;;17.95;12.32;;;3.10;99.90;;;;;;4721977;30;20049;-80
2020/12/16 20:52:41;;;;;;;17.17;12.38;;;3.00;99.90;;;;;;4736736;30;20525;-80
2020/12/16 20:55:08;;;;;;;19.52;13.75;;;3.10;99.90;;;;;;4736620;30;20098;-79
2020/12/16 20:57:38;;;;;;;18.40;12.30;;;3.00;99.90;;;;;;4736305;30;20052;-80
2020/12/16 21:00:11;;;;;;;19.25;11.23;;;3.00;99.90;;;;;;4736295;30;20073;-79
2020/12/16 21:02:40;;;;;;;20.15;11.40;;;3.00;99.90;;;;;;4722204;30;20048;-80
2020/12/16 21:05:13;;;;;;;16.45;11.63;;;3.10;99.90;;;;;;4735847;30;20052;-81
2020/12/16 21:07:41;;;;;;;16.92;9.82;;;3.10;99.90;;;;;;4737831;30;20134;-80
2020/12/16 21:10:34;;;;;;;30.02;12.55;;;3.00;99.90;;;;;;4732584;30;20083;-80
2020/12/16 21:13:05;;;;;;;16.23;11.15;;;2.90;99.90;;;;;;4730326;30;20056;-81
2020/12/16 21:15:38;;;;;;;16.48;11.45;;;2.80;99.90;;;;;;4740581;30;20106;-81
2020/12/16 21:18:13;;;;;;;17.70;12.15;;;2.80;99.90;;;;;;4740390;30;20052;-81
2020/12/16 21:20:45;;;;;;;17.27;11.52;;;2.80;99.90;;;;;;4739978;30;20139;-81
2020/12/16 21:23:18;;;;;;;18.60;11.57;;;2.80;99.90;;;;;;4740729;30;20044;-81
2020/12/16 21:25:45;;;;;;;19.50;11.77;;;2.80;99.90;;;;;;4725159;30;20048;-81
2020/12/16 21:28:13;;;;;;;19.38;12.00;;;2.80;99.90;;;;;;4724857;30;20056;-81
2020/12/16 21:30:40;;;;;;;21.38;12.43;;;2.80;99.90;;;;;;4724806;30;20071;-81
2020/12/16 21:33:12;;;;;;;19.35;11.55;;;2.80;99.90;;;;;;4725015;30;20406;-81
2020/12/16 21:35:45;;;;;;;23.13;11.55;;;2.80;99.90;;;;;;4738945;30;20059;-81
2020/12/16 21:38:12;;;;;;;26.50;12.43;;;2.80;99.90;;;;;;4738696;30;20056;-81
2020/12/16 21:40:40;;;;;;;26.40;11.93;;;2.70;99.90;;;;;;4724255;30;20122;-81
2020/12/16 21:43:08;;;;;;;26.60;11.85;;;2.60;99.90;;;;;;4738593;30;20048;-81
2020/12/16 21:45:40;;;;;;;34.03;10.93;;;2.60;99.90;;;;;;4738895;30;20059;-81
2020/12/16 21:48:08;;;;;;;18.17;11.15;;;2.50;99.90;;;;;;4724146;30;20134;-81
2020/12/16 21:50:36;;;;;;;25.88;11.77;;;2.50;99.90;;;;;;4724129;30;20151;-81
2020/12/16 21:53:03;;;;;;;21.13;11.52;;;2.60;99.90;;;;;;4739313;30;20052;-81
2020/12/16 22:01:36;;;;;;;16.83;10.57;;;2.50;99.90;;;;;;1266916;28;20056;-80
2020/12/16 22:04:04;;;;;;;22.90;11.35;;;2.50;99.90;;;;;;4749433;30;20520;-80
2020/12/16 22:06:36;;;;;;;18.05;10.07;;;2.50;99.90;;;;;;4724180;30;20064;-80
2020/12/16 22:09:09;;;;;;;17.35;11.25;;;2.50;99.90;;;;;;4737975;30;20139;-80